Time;durP1;ratioP1;P1;durP2;ratioP2;P2;SDS_P1;SDS_P2;PMS_P1;PMS_P2;Temp;Humidity;BMP_temperature;BMP_pressure;BME280_temperature;BME280_humidity;BME280_pressure;Samples;Min_cycle;Max_cycle;Signal;HPM_P1;HPM_P2
2021/05/04 04:46:53;;;;;;;4.43;2.50;;;;;;;;;;6196702;22;883554;-83
2021/05/04 04:49:19;;;;;;;6.38;2.38;;;;;;;;;;6250008;23;20326;-81
2021/05/04 04:51:46;;;;;;;3.47;2.05;;;;;;;;;;6250691;22;20004;-83
2021/05/04 04:54:12;;;;;;;5.10;2.33;;;;;;;;;;6250903;22;20421;-83
2021/05/04 04:56:38;;;;;;;8.38;4.07;;;;;;;;;;6231771;23;20012;-81
2021/05/04 04:59:07;;;;;;;4.95;2.20;;;;;;;;;;6219890;23;20001;-81
2021/05/04 05:01:33;;;;;;;4.13;1.60;;;;;;;;;;6218407;23;20007;-81
2021/05/04 05:04:00;;;;;;;6.60;2.10;;;;;;;;;;6216614;23;20020;-81
2021/05/04 05:06:26;;;;;;;6.35;2.20;;;;;;;;;;6215910;23;20008;-80
2021/05/04 05:08:52;;;;;;;4.68;2.25;;;;;;;;;;6216088;23;20012;-79
2021/05/04 05:11:21;;;;;;;3.25;1.60;;;;;;;;;;6216504;23;20008;-81
2021/05/04 05:13:47;;;;;;;3.70;1.55;;;;;;;;;;6214953;23;20406;-81
2021/05/04 05:16:14;;;;;;;7.03;1.55;;;;;;;;;;6215150;23;20000;-81
2021/05/04 05:18:40;;;;;;;3.40;1.65;;;;;;;;;;6215071;23;20035;-81
2021/05/04 05:21:10;;;;;;;6.40;1.83;;;;;;;;;;6217364;23;20000;-79
2021/05/04 05:23:36;;;;;;;6.80;2.10;;;;;;;;;;6216941;23;20008;-81
2021/05/04 05:26:02;;;;;;;9.27;1.52;;;;;;;;;;6215464;23;20009;-80
2021/05/04 05:28:28;;;;;;;6.25;1.40;;;;;;;;;;6217637;23;20001;-80
2021/05/04 05:30:54;;;;;;;3.65;1.58;;;;;;;;;;6216615;23;20394;-78
2021/05/04 05:33:20;;;;;;;6.30;1.52;;;;;;;;;;6218606;23;20004;-79
2021/05/04 05:35:46;;;;;;;3.30;1.58;;;;;;;;;;6215861;23;20008;-79
2021/05/04 05:38:11;;;;;;;3.20;1.65;;;;;;;;;;6215057;23;19996;-79
2021/05/04 05:40:37;;;;;;;2.42;1.20;;;;;;;;;;6215044;23;20000;-80
2021/05/04 05:43:03;;;;;;;3.72;1.20;;;;;;;;;;6214088;23;20000;-77
2021/05/04 05:45:28;;;;;;;3.13;1.35;;;;;;;;;;6211141;23;20039;-77
2021/05/04 05:47:54;;;;;;;3.20;1.33;;;;;;;;;;6212082;23;20007;-78
2021/05/04 05:50:20;;;;;;;2.38;1.20;;;;;;;;;;6215057;23;20332;-78
2021/05/04 05:52:46;;;;;;;3.38;1.42;;;;;;;;;;6214586;23;20028;-78
2021/05/04 05:55:11;;;;;;;4.68;1.63;;;;;;;;;;6213122;23;20005;-78
2021/05/04 05:57:37;;;;;;;3.83;1.45;;;;;;;;;;6214920;23;20396;-78
2021/05/04 06:00:04;;;;;;;2.55;1.23;;;;;;;;;;6214382;23;20007;-79
2021/05/04 06:02:30;;;;;;;3.17;1.52;;;;;;;;;;6215031;23;20008;-79
2021/05/04 06:04:56;;;;;;;4.30;1.40;;;;;;;;;;6215044;23;20083;-79
2021/05/04 06:07:21;;;;;;;2.47;1.10;;;;;;;;;;6213942;23;20092;-79
2021/05/04 06:09:47;;;;;;;5.22;1.65;;;;;;;;;;6214973;23;20036;-78
2021/05/04 06:12:13;;;;;;;2.70;1.30;;;;;;;;;;6214028;23;20004;-79
2021/05/04 06:14:38;;;;;;;4.28;1.38;;;;;;;;;;6213806;23;20001;-78
2021/05/04 06:17:04;;;;;;;2.78;1.40;;;;;;;;;;6214974;23;20483;-78
2021/05/04 06:19:30;;;;;;;2.28;1.08;;;;;;;;;;6213660;23;20011;-79
2021/05/04 06:24:14;;;;;;;3.92;1.30;;;;;;;;;;5072376;28;20770;-78
2021/05/04 06:26:40;;;;;;;5.13;1.30;;;;;;;;;;5083288;28;20028;-77
2021/05/04 06:29:07;;;;;;;5.30;1.25;;;;;;;;;;5069869;28;20390;-78
2021/05/04 06:31:33;;;;;;;3.67;1.35;;;;;;;;;;5073119;28;20095;-78
2021/05/04 06:33:59;;;;;;;3.10;1.50;;;;;;;;;;5072799;28;20381;-77
2021/05/04 06:36:24;;;;;;;5.05;1.10;;;;;;;;;;5073282;28;20026;-78
2021/05/04 06:38:50;;;;;;;3.88;1.20;;;;;;;;;;5077848;28;20388;-78
2021/05/04 06:41:16;;;;;;;3.95;1.38;;;;;;;;;;5064627;28;20033;-78
2021/05/04 06:43:41;;;;;;;7.88;4.20;;;;;;;;;;5082358;28;20021;-78
2021/05/04 06:46:08;;;;;;;8.90;5.82;;;;;;;;;;5070333;28;20032;-78
2021/05/04 06:48:34;;;;;;;14.68;9.30;;;;;;;;;;5080762;28;20024;-77
2021/05/04 06:50:59;;;;;;;9.95;6.40;;;;;;;;;;5075106;28;20025;-80
2021/05/04 06:53:25;;;;;;;6.32;4.25;;;;;;;;;;5076650;28;20024;-79
2021/05/04 06:55:52;;;;;;;3.35;2.22;;;;;;;;;;5077084;28;20017;-78
2021/05/04 06:58:19;;;;;;;7.85;1.90;;;;;;;;;;5069990;28;20032;-77
2021/05/04 07:00:44;;;;;;;12.88;8.65;;;;;;;;;;5074335;28;20093;-77
2021/05/04 07:03:10;;;;;;;8.60;5.75;;;;;;;;;;5070861;28;20017;-78
2021/05/04 07:05:36;;;;;;;4.90;1.60;;;;;;;;;;5074773;28;20021;-76
2021/05/04 07:08:01;;;;;;;3.10;1.50;;;;;;;;;;5073152;28;20051;-77
2021/05/04 07:10:27;;;;;;;6.43;1.40;;;;;;;;;;5079955;28;20098;-77
2021/05/04 07:12:53;;;;;;;2.38;1.30;;;;;;;;;;5074745;28;20452;-77
2021/05/04 07:15:19;;;;;;;2.70;1.10;;;;;;;;;;5067626;28;20536;-77
2021/05/04 07:17:45;;;;;;;3.45;1.40;;;;;;;;;;5075715;28;20108;-78
2021/05/04 07:20:11;;;;;;;3.25;1.60;;;;;;;;;;5069196;28;20038;-77
2021/05/04 07:22:37;;;;;;;3.60;1.45;;;;;;;;;;5076259;28;20025;-78
2021/05/04 07:25:03;;;;;;;2.92;1.30;;;;;;;;;;5071444;28;20103;-78
2021/05/04 07:27:29;;;;;;;2.55;1.15;;;;;;;;;;5076582;28;20012;-78
2021/05/04 07:29:54;;;;;;;2.78;1.30;;;;;;;;;;5074406;28;20012;-78
2021/05/04 07:32:20;;;;;;;3.53;1.70;;;;;;;;;;5067931;28;20031;-78
2021/05/04 07:34:46;;;;;;;2.45;1.10;;;;;;;;;;5065100;28;20020;-78
2021/05/04 07:37:12;;;;;;;3.38;1.58;;;;;;;;;;5056784;28;20025;-76
2021/05/04 07:39:38;;;;;;;4.93;1.40;;;;;;;;;;5061351;28;20498;-77
2021/05/04 07:42:04;;;;;;;4.90;1.70;;;;;;;;;;5059241;28;20040;-78
2021/05/04 07:44:30;;;;;;;2.05;1.08;;;;;;;;;;5063260;28;20029;-77
2021/05/04 07:46:55;;;;;;;8.10;2.20;;;;;;;;;;5060857;28;20027;-77
2021/05/04 07:49:29;;;;;;;7.40;1.23;;;;;;;;;;5054577;28;20027;-77
2021/05/04 07:51:55;;;;;;;10.18;2.13;;;;;;;;;;5061223;28;20429;-77
2021/05/04 07:54:21;;;;;;;3.22;1.80;;;;;;;;;;5056510;28;20108;-77
2021/05/04 07:56:47;;;;;;;3.22;1.52;;;;;;;;;;5056258;28;20024;-77
2021/05/04 07:59:13;;;;;;;3.55;1.63;;;;;;;;;;5066425;28;20111;-76
2021/05/04 08:01:38;;;;;;;6.68;1.60;;;;;;;;;;5053597;28;20393;-76
2021/05/04 08:04:04;;;;;;;4.47;1.40;;;;;;;;;;5064221;28;20051;-77
2021/05/04 08:06:30;;;;;;;6.18;1.60;;;;;;;;;;5054734;28;20500;-77
2021/05/04 08:08:55;;;;;;;4.28;1.60;;;;;;;;;;5064346;28;20016;-76
2021/05/04 08:11:21;;;;;;;8.07;2.10;;;;;;;;;;5062442;28;20013;-76
2021/05/04 08:13:47;;;;;;;3.55;1.48;;;;;;;;;;5050183;28;20439;-76
2021/05/04 08:16:14;;;;;;;2.58;1.27;;;;;;;;;;5063614;28;20034;-79
2021/05/04 08:18:42;;;;;;;4.97;1.33;;;;;;;;;;5054068;28;20549;-77
2021/05/04 08:21:08;;;;;;;6.25;2.28;;;;;;;;;;5064657;28;20032;-77
2021/05/04 08:23:34;;;;;;;4.05;1.40;;;;;;;;;;5057263;28;20027;-77
2021/05/04 08:25:59;;;;;;;2.53;1.30;;;;;;;;;;5069028;28;20515;-76
2021/05/04 08:28:25;;;;;;;4.78;1.55;;;;;;;;;;5057726;28;19912;-77
2021/05/04 08:30:51;;;;;;;2.22;1.23;;;;;;;;;;5049981;28;20469;-78
2021/05/04 08:33:17;;;;;;;3.58;1.17;;;;;;;;;;5066002;28;20030;-79
2021/05/04 08:35:43;;;;;;;3.17;1.15;;;;;;;;;;5051044;28;20051;-78
2021/05/04 08:38:10;;;;;;;5.68;1.65;;;;;;;;;;5061964;28;20456;-77
2021/05/04 08:40:36;;;;;;;3.75;1.42;;;;;;;;;;5058334;28;20016;-80
2021/05/04 08:43:02;;;;;;;3.67;1.40;;;;;;;;;;5056776;28;20351;-80
2021/05/04 08:45:32;;;;;;;2.90;1.60;;;;;;;;;;5059931;28;20391;-80
2021/05/04 08:47:57;;;;;;;5.20;2.28;;;;;;;;;;5058213;28;20512;-79
2021/05/04 08:50:23;;;;;;;5.68;1.50;;;;;;;;;;5070448;28;20027;-80
2021/05/04 08:52:51;;;;;;;24.70;1.90;;;;;;;;;;5058892;28;20496;-79
2021/05/04 08:55:16;;;;;;;3.22;1.38;;;;;;;;;;5065099;28;20028;-79
2021/05/04 08:57:42;;;;;;;2.92;1.48;;;;;;;;;;5052929;28;20365;-79
2021/05/04 09:00:09;;;;;;;3.40;1.73;;;;;;;;;;5058544;28;20037;-80
2021/05/04 09:02:56;;;;;;;3.63;1.52;;;;;;;;;;5056536;28;20051;-79
2021/05/04 09:05:21;;;;;;;3.40;1.85;;;;;;;;;;5064971;28;20037;-80
2021/05/04 09:07:47;;;;;;;2.58;1.27;;;;;;;;;;5048350;28;20029;-80
2021/05/04 09:18:38;;;;;;;3.03;1.70;;;;;;;;;;5051750;28;20033;-80
2021/05/04 09:21:06;;;;;;;2.95;1.33;;;;;;;;;;5045109;28;20093;-79
2021/05/04 09:23:31;;;;;;;3.40;1.60;;;;;;;;;;5045246;28;20507;-80
2021/05/04 09:25:57;;;;;;;3.13;1.65;;;;;;;;;;5048640;28;20021;-80
2021/05/04 09:28:23;;;;;;;3.53;1.65;;;;;;;;;;5050408;28;20367;-79
2021/05/04 09:30:56;;;;;;;3.58;1.25;;;;;;;;;;5043832;28;20037;-80
2021/05/04 09:33:22;;;;;;;6.38;1.50;;;;;;;;;;5044154;28;20044;-80
2021/05/04 09:35:47;;;;;;;3.65;1.80;;;;;;;;;;5045500;28;20024;-80
2021/05/04 09:38:14;;;;;;;4.40;2.22;;;;;;;;;;5050820;28;20025;-80
2021/05/04 09:40:41;;;;;;;3.70;1.67;;;;;;;;;;5044657;28;20021;-80
2021/05/04 09:43:19;;;;;;;4.75;2.17;;;;;;;;;;5049366;28;20758;-80
2021/05/04 09:45:45;;;;;;;5.13;1.70;;;;;;;;;;5048505;28;20120;-80
2021/05/04 09:48:12;;;;;;;4.05;1.92;;;;;;;;;;5042491;28;20078;-80
2021/05/04 09:50:53;;;;;;;4.10;2.15;;;;;;;;;;5043358;28;20029;-78
2021/05/04 09:53:22;;;;;;;5.90;1.88;;;;;;;;;;5049439;28;20037;-78
2021/05/04 09:55:52;;;;;;;6.07;2.13;;;;;;;;;;5045831;28;20032;-79
2021/05/04 09:58:29;;;;;;;3.85;1.98;;;;;;;;;;5040519;28;20310;-79
2021/05/04 10:00:54;;;;;;;5.32;2.10;;;;;;;;;;5044472;28;20059;-79
2021/05/04 10:03:20;;;;;;;5.57;2.50;;;;;;;;;;5046940;28;20076;-80
2021/05/04 10:05:46;;;;;;;6.10;2.60;;;;;;;;;;5048047;28;20032;-80
2021/05/04 10:10:31;;;;;;;4.75;2.10;;;;;;;;;;5062325;28;20358;-79
2021/05/04 10:12:56;;;;;;;4.00;2.10;;;;;;;;;;5061280;28;20068;-79
2021/05/04 10:15:23;;;;;;;3.97;1.80;;;;;;;;;;5064613;28;20034;-80
2021/05/04 10:17:48;;;;;;;7.85;2.45;;;;;;;;;;5057903;28;20017;-80
2021/05/04 10:20:16;;;;;;;6.32;2.28;;;;;;;;;;5057969;28;20108;-80
2021/05/04 10:22:42;;;;;;;5.70;2.35;;;;;;;;;;5062770;28;20029;-80
2021/05/04 10:25:12;;;;;;;4.30;2.38;;;;;;;;;;5053321;28;20043;-80
2021/05/04 10:27:38;;;;;;;13.15;8.73;;;;;;;;;;5064735;28;20031;-80
2021/05/04 10:30:05;;;;;;;6.00;2.55;;;;;;;;;;5058837;28;20025;-80
2021/05/04 10:32:49;;;;;;;4.43;1.70;;;;;;;;;;5059370;28;20032;-80
2021/05/04 10:35:33;;;;;;;3.67;2.13;;;;;;;;;;5062289;28;20016;-80
2021/05/04 10:37:59;;;;;;;9.10;2.95;;;;;;;;;;5061186;28;20017;-78
2021/05/04 10:40:29;;;;;;;3.70;1.70;;;;;;;;;;5047598;28;20052;-78
2021/05/04 10:42:55;;;;;;;3.72;1.90;;;;;;;;;;5044990;28;20044;-79
2021/05/04 10:45:37;;;;;;;5.25;2.53;;;;;;;;;;5048943;28;20029;-78
2021/05/04 10:48:02;;;;;;;5.05;2.58;;;;;;;;;;5042632;28;20060;-79
2021/05/04 10:50:47;;;;;;;4.75;2.22;;;;;;;;;;5049304;28;20020;-76
2021/05/04 10:53:13;;;;;;;3.83;2.20;;;;;;;;;;5045133;28;20033;-78
2021/05/04 10:55:45;;;;;;;4.43;2.28;;;;;;;;;;5054948;28;20036;-78
2021/05/04 10:58:14;;;;;;;5.53;2.75;;;;;;;;;;5046746;28;20099;-77
2021/05/04 11:00:51;;;;;;;3.78;2.00;;;;;;;;;;5049561;28;20017;-77
2021/05/04 11:03:29;;;;;;;5.93;2.17;;;;;;;;;;5047503;28;20091;-77
2021/05/04 11:06:05;;;;;;;5.30;2.13;;;;;;;;;;5050203;28;20040;-77
2021/05/04 11:08:51;;;;;;;4.43;2.83;;;;;;;;;;5057396;28;20027;-77
2021/05/04 11:11:50;;;;;;;7.95;2.75;;;;;;;;;;5059077;28;20043;-79
2021/05/04 11:14:16;;;;;;;4.95;2.80;;;;;;;;;;5038995;28;20060;-77
2021/05/04 11:16:47;;;;;;;4.40;2.15;;;;;;;;;;5050027;28;20052;-77
2021/05/04 11:19:17;;;;;;;6.07;2.40;;;;;;;;;;5058415;28;20029;-78
2021/05/04 11:21:53;;;;;;;4.38;2.30;;;;;;;;;;5051521;28;20538;-78
2021/05/04 11:24:20;;;;;;;5.05;2.45;;;;;;;;;;5054631;28;20362;-79
2021/05/04 11:26:46;;;;;;;3.47;2.20;;;;;;;;;;5040448;28;20045;-77
2021/05/04 11:29:14;;;;;;;7.57;2.70;;;;;;;;;;5035345;28;20072;-76
2021/05/04 11:31:44;;;;;;;4.00;2.53;;;;;;;;;;5039985;28;20475;-77
2021/05/04 11:34:28;;;;;;;4.32;2.40;;;;;;;;;;5035050;28;20021;-77
2021/05/04 11:36:54;;;;;;;4.20;2.83;;;;;;;;;;5032948;28;20056;-78
2021/05/04 11:39:20;;;;;;;4.63;2.65;;;;;;;;;;5036634;28;20390;-78
2021/05/04 11:41:59;;;;;;;6.65;2.63;;;;;;;;;;5039143;28;20136;-78
2021/05/04 11:44:34;;;;;;;7.75;3.20;;;;;;;;;;5045225;28;20033;-77
2021/05/04 11:47:18;;;;;;;3.95;2.55;;;;;;;;;;5037168;28;20032;-77
2021/05/04 11:49:44;;;;;;;3.97;2.35;;;;;;;;;;5038354;28;20021;-77
2021/05/04 11:52:10;;;;;;;3.70;2.30;;;;;;;;;;5040773;28;20070;-78
2021/05/04 11:54:36;;;;;;;6.90;2.35;;;;;;;;;;5039620;28;20017;-77
2021/05/04 11:57:02;;;;;;;6.53;2.72;;;;;;;;;;5038911;28;20013;-77
2021/05/04 11:59:28;;;;;;;4.47;3.03;;;;;;;;;;5038715;28;20048;-77
2021/05/04 12:01:54;;;;;;;3.58;2.55;;;;;;;;;;5039890;28;20052;-78
2021/05/04 12:04:21;;;;;;;5.88;3.25;;;;;;;;;;5039340;28;20398;-77
2021/05/04 12:06:48;;;;;;;4.82;2.95;;;;;;;;;;5036193;28;20032;-79
2021/05/04 12:09:16;;;;;;;6.28;2.75;;;;;;;;;;5044438;28;20021;-78
2021/05/04 12:11:42;;;;;;;3.65;2.40;;;;;;;;;;5035208;28;20033;-78
2021/05/04 12:14:09;;;;;;;5.00;2.65;;;;;;;;;;5038913;28;20022;-77
2021/05/04 12:16:34;;;;;;;4.53;2.80;;;;;;;;;;5046005;28;20020;-78
2021/05/04 12:19:01;;;;;;;4.90;2.67;;;;;;;;;;5047992;28;20039;-76
2021/05/04 12:21:27;;;;;;;6.35;2.67;;;;;;;;;;5048385;28;20016;-77
2021/05/04 12:23:52;;;;;;;6.93;3.58;;;;;;;;;;5042847;28;20039;-77
2021/05/04 12:26:20;;;;;;;3.88;2.58;;;;;;;;;;5044311;28;20021;-77
2021/05/04 12:28:51;;;;;;;5.32;3.22;;;;;;;;;;5038232;28;20030;-78
2021/05/04 12:31:20;;;;;;;4.13;2.63;;;;;;;;;;5032418;28;20489;-78
2021/05/04 12:33:47;;;;;;;5.15;2.60;;;;;;;;;;5045647;28;20539;-77
2021/05/04 12:39:00;;;;;;;3.58;2.05;;;;;;;;;;5042347;28;20108;-77
2021/05/04 12:41:38;;;;;;;5.68;2.30;;;;;;;;;;5040693;28;20025;-77
2021/05/04 12:44:14;;;;;;;4.05;2.25;;;;;;;;;;5041814;28;20013;-77
2021/05/04 12:46:43;;;;;;;3.85;1.95;;;;;;;;;;5038691;28;20469;-78
2021/05/04 12:49:09;;;;;;;4.68;2.13;;;;;;;;;;5040996;28;20021;-78
2021/05/04 12:51:35;;;;;;;3.70;1.65;;;;;;;;;;5044004;28;20027;-77
2021/05/04 12:54:08;;;;;;;3.45;2.08;;;;;;;;;;5043453;28;20096;-78
2021/05/04 12:56:34;;;;;;;4.30;1.70;;;;;;;;;;5040736;28;20045;-78
2021/05/04 12:59:07;;;;;;;3.78;1.90;;;;;;;;;;5039041;28;20057;-78
2021/05/04 13:01:40;;;;;;;3.47;1.95;;;;;;;;;;5040993;28;20025;-78
2021/05/04 13:04:41;;;;;;;4.63;1.77;;;;;;;;;;5042598;28;20084;-78
2021/05/04 13:07:10;;;;;;;4.20;1.83;;;;;;;;;;5036528;28;20151;-78
2021/05/04 13:12:55;;;;;;;;;;;;;;;;;;5041933;28;20040;-79
2021/05/04 13:37:29;;;;;;;10.10;8.25;;;;;;;;;;5100203;28;20129;-79
2021/05/04 13:40:48;;;;;;;10.40;9.20;;;;;;;;;;5102494;28;20027;-79
2021/05/04 13:47:38;;;;;;;4.88;3.08;;;;;;;;;;5062335;28;20033;-78
2021/05/04 13:50:07;;;;;;;3.72;2.38;;;;;;;;;;5067891;28;20044;-78
2021/05/04 13:52:33;;;;;;;3.78;2.30;;;;;;;;;;5066182;28;20084;-79
2021/05/04 13:54:58;;;;;;;3.83;2.38;;;;;;;;;;5065223;28;20027;-79
2021/05/04 13:57:26;;;;;;;5.38;2.70;;;;;;;;;;5066522;28;20027;-78
2021/05/04 13:59:54;;;;;;;4.30;2.47;;;;;;;;;;5065533;28;20469;-78
2021/05/04 14:05:20;;;;;;;4.70;2.72;;;;;;;;;;5062624;28;20026;-78
2021/05/04 14:26:34;;;;;;;6.47;2.50;;;;;;;;;;5058518;28;20079;-78
2021/05/04 14:29:00;;;;;;;7.13;3.00;;;;;;;;;;5067325;28;20068;-78
2021/05/04 14:31:26;;;;;;;4.80;2.40;;;;;;;;;;5065058;28;20048;-78
2021/05/04 14:33:52;;;;;;;4.10;2.72;;;;;;;;;;5066071;28;20384;-78
2021/05/04 14:38:56;;;;;;;6.28;3.20;;;;;;;;;;5059785;28;20021;-78
2021/05/04 14:47:00;;;;;;;5.82;2.60;;;;;;;;;;5068644;28;20037;-78
2021/05/04 15:02:43;;;;;;;4.68;2.47;;;;;;;;;;5048493;28;20053;-78
2021/05/04 15:05:09;;;;;;;6.90;1.98;;;;;;;;;;5049672;28;20025;-77
2021/05/04 15:07:35;;;;;;;3.10;1.80;;;;;;;;;;5047339;28;20079;-78
2021/05/04 15:10:01;;;;;;;5.07;2.30;;;;;;;;;;5053262;28;20021;-78
2021/05/04 15:12:28;;;;;;;6.03;3.00;;;;;;;;;;5065038;28;20031;-78
2021/05/04 15:14:54;;;;;;;5.45;2.78;;;;;;;;;;5047884;28;20108;-78
2021/05/04 15:17:42;;;;;;;2.45;1.50;;;;;;;;;;5050711;28;20033;-79
2021/05/04 15:22:53;;;;;;;3.30;1.98;;;;;;;;;;5051552;28;20064;-79
2021/05/04 15:25:19;;;;;;;3.53;1.77;;;;;;;;;;5050171;28;20076;-79
2021/05/04 15:27:45;;;;;;;4.85;2.10;;;;;;;;;;5048510;28;20018;-78
2021/05/04 15:30:11;;;;;;;7.20;3.75;;;;;;;;;;5053428;28;20466;-78
2021/05/04 15:32:43;;;;;;;6.10;2.03;;;;;;;;;;5055819;28;20021;-79
2021/05/04 15:35:09;;;;;;;6.60;2.45;;;;;;;;;;5050244;28;20037;-78
2021/05/04 15:37:35;;;;;;;8.13;4.15;;;;;;;;;;5053373;28;20079;-78
2021/05/04 15:40:01;;;;;;;6.38;3.22;;;;;;;;;;5063427;28;20055;-78
2021/05/04 15:42:27;;;;;;;7.05;3.13;;;;;;;;;;5048681;28;20025;-79
2021/05/04 15:45:04;;;;;;;7.07;3.38;;;;;;;;;;5050456;28;20025;-78
2021/05/04 15:50:48;;;;;;;;;;;;;;;;;;5057105;28;20021;-78
2021/05/04 16:00:50;;;;;;;2.40;1.17;;;;;;;;;;5057587;28;20090;-78
2021/05/04 16:03:23;;;;;;;3.45;1.75;;;;;;;;;;5056268;28;20025;-79
2021/05/04 16:08:45;;;;;;;2.92;1.30;;;;;;;;;;5052699;28;20083;-78
2021/05/04 16:11:10;;;;;;;3.78;1.60;;;;;;;;;;5050008;28;20024;-78
2021/05/04 16:13:36;;;;;;;5.90;2.40;;;;;;;;;;5047536;28;20021;-78
2021/05/04 16:18:20;;;;;;;4.15;1.40;;;;;;;;;;5109311;27;20411;-79
2021/05/04 16:23:41;;;;;;;3.85;1.30;;;;;;;;;;5092100;28;20495;-80
2021/05/04 16:31:10;;;;;;;2.70;1.35;;;;;;;;;;5081067;28;20088;-78
2021/05/04 16:33:36;;;;;;;4.03;2.33;;;;;;;;;;5087666;28;20030;-79
2021/05/04 16:36:02;;;;;;;19.20;12.85;;;;;;;;;;5093826;28;20025;-78
2021/05/04 16:38:28;;;;;;;6.05;4.63;;;;;;;;;;5095059;28;20074;-79
2021/05/04 16:40:53;;;;;;;3.08;1.92;;;;;;;;;;5092386;28;20016;-78
2021/05/04 16:43:19;;;;;;;7.80;5.45;;;;;;;;;;5082607;28;20043;-79
2021/05/04 16:45:52;;;;;;;3.90;1.65;;;;;;;;;;5082831;28;20032;-79
2021/05/04 16:48:18;;;;;;;3.80;1.92;;;;;;;;;;5084181;28;20037;-79
2021/05/04 16:50:44;;;;;;;2.10;1.10;;;;;;;;;;5088169;28;20030;-80
2021/05/04 16:53:10;;;;;;;1.85;1.00;;;;;;;;;;5084748;28;20024;-80
2021/05/04 16:55:35;;;;;;;2.72;1.02;;;;;;;;;;5076467;28;20081;-80
2021/05/04 16:58:01;;;;;;;2.83;1.08;;;;;;;;;;5086092;28;20387;-81
2021/05/04 17:00:27;;;;;;;6.60;4.78;;;;;;;;;;5095871;22;20123;-85
2021/05/04 17:02:53;;;;;;;7.13;4.57;;;;;;;;;;5072333;28;20048;-86
2021/05/04 17:05:21;;;;;;;10.07;8.43;;;;;;;;;;5075523;28;20111;-85
2021/05/04 17:10:27;;;;;;;5.28;4.13;;;;;;;;;;5092253;28;20028;-84
2021/05/04 17:12:54;;;;;;;3.33;2.05;;;;;;;;;;5090613;28;20443;-82
2021/05/04 17:17:39;;;;;;;8.20;3.58;;;;;;;;;;5105683;27;20387;-85
2021/05/04 17:20:05;;;;;;;5.85;2.70;;;;;;;;;;5098848;28;20700;-84
2021/05/04 17:22:30;;;;;;;11.45;5.60;;;;;;;;;;5101145;28;20365;-85
2021/05/04 17:24:56;;;;;;;3.70;1.80;;;;;;;;;;5100648;28;20077;-84
2021/05/04 17:27:22;;;;;;;4.05;2.47;;;;;;;;;;5098523;28;20022;-84
2021/05/04 17:29:48;;;;;;;4.18;1.52;;;;;;;;;;5094969;28;20103;-84
2021/05/04 17:32:13;;;;;;;2.22;1.05;;;;;;;;;;5096767;28;20028;-84
2021/05/04 17:34:39;;;;;;;2.33;0.90;;;;;;;;;;5095953;28;20107;-84
2021/05/04 17:37:05;;;;;;;4.88;1.98;;;;;;;;;;5099068;28;20053;-84
2021/05/04 17:39:30;;;;;;;5.90;1.08;;;;;;;;;;5100814;28;20087;-87
2021/05/04 17:41:56;;;;;;;6.57;2.05;;;;;;;;;;5103355;28;20131;-84
2021/05/04 17:44:22;;;;;;;1.90;0.82;;;;;;;;;;5102006;28;20017;-84
2021/05/04 17:46:48;;;;;;;5.00;1.10;;;;;;;;;;5090486;28;20020;-83
2021/05/04 17:49:14;;;;;;;4.65;1.77;;;;;;;;;;5094250;28;20017;-85
2021/05/04 17:51:39;;;;;;;4.13;1.00;;;;;;;;;;5091378;28;20036;-84
2021/05/04 17:54:06;;;;;;;3.00;1.00;;;;;;;;;;5097906;28;20016;-85
2021/05/04 17:56:32;;;;;;;5.57;2.78;;;;;;;;;;5101921;28;20054;-84
2021/05/04 18:01:17;;;;;;;4.10;1.75;;;;;;;;;;5109185;27;20445;-84
2021/05/04 18:03:45;;;;;;;2.35;0.90;;;;;;;;;;5091996;28;20024;-84
2021/05/04 18:06:16;;;;;;;4.15;1.10;;;;;;;;;;5095505;28;20024;-83
2021/05/04 18:08:42;;;;;;;4.93;1.42;;;;;;;;;;5091533;28;20024;-84
2021/05/04 18:11:10;;;;;;;8.68;4.18;;;;;;;;;;5090486;28;20123;-84
2021/05/04 18:19:33;;;;;;;6.25;3.17;;;;;;;;;;5082054;28;20385;-84
2021/05/04 18:21:59;;;;;;;9.13;2.83;;;;;;;;;;5069222;28;20035;-85
2021/05/04 18:24:25;;;;;;;7.88;4.07;;;;;;;;;;5080337;28;20032;-84
2021/05/04 18:29:11;;;;;;;7.35;2.92;;;;;;;;;;5103482;27;20385;-85
2021/05/04 18:31:52;;;;;;;7.82;2.88;;;;;;;;;;5098441;28;20042;-85
2021/05/04 18:34:26;;;;;;;14.43;7.55;;;;;;;;;;5101463;28;20024;-85
2021/05/04 18:37:03;;;;;;;22.83;9.57;;;;;;;;;;5097215;28;20030;-85
2021/05/04 19:03:39;;;;;;;;;;;;;;;;;;5094214;28;20024;-84
2021/05/04 19:23:11;;;;;;;9.45;3.58;;;;;;;;;;5069292;28;20113;-84
2021/05/04 19:28:10;;;;;;;4.68;1.20;;;;;;;;;;5085796;28;20530;-82
2021/05/04 19:56:10;;;;;;;3.55;1.67;;;;;;;;;;5095184;28;20117;-83
2021/05/04 20:08:57;;;;;;;2.67;0.90;;;;;;;;;;5093411;28;20113;-84
2021/05/04 20:13:57;;;;;;;4.32;1.40;;;;;;;;;;5082974;28;20135;-84
2021/05/04 20:16:24;;;;;;;3.17;1.10;;;;;;;;;;5071816;28;20040;-84
2021/05/04 20:18:51;;;;;;;1.90;0.80;;;;;;;;;;5071060;28;20029;-83
2021/05/04 20:21:16;;;;;;;3.03;0.90;;;;;;;;;;5082000;28;20032;-84
2021/05/04 20:23:42;;;;;;;2.42;1.27;;;;;;;;;;5092306;28;20040;-84
2021/05/04 20:26:08;;;;;;;3.78;1.30;;;;;;;;;;5095210;28;20077;-84
2021/05/04 20:28:34;;;;;;;3.05;1.10;;;;;;;;;;5083278;28;20498;-84
2021/05/04 20:31:00;;;;;;;2.33;0.80;;;;;;;;;;5077007;28;20032;-83
2021/05/04 20:33:29;;;;;;;3.80;1.20;;;;;;;;;;5076881;28;20032;-84
2021/05/04 20:35:56;;;;;;;2.65;1.17;;;;;;;;;;5078887;28;20111;-84
2021/05/04 20:38:22;;;;;;;4.78;2.03;;;;;;;;;;5075085;28;20119;-84
2021/05/04 20:40:48;;;;;;;3.03;1.40;;;;;;;;;;5078427;28;20516;-84
2021/05/04 20:43:14;;;;;;;4.25;1.50;;;;;;;;;;5079986;28;20070;-84
2021/05/04 20:45:40;;;;;;;4.60;1.60;;;;;;;;;;5075002;28;20023;-84
2021/05/04 20:48:43;;;;;;;4.32;1.88;;;;;;;;;;5072801;28;20027;-84
2021/05/04 20:51:46;;;;;;;;;;;;;;;;;;;;;
2021/05/04 20:54:53;;;;;;;4.28;1.50;;;;;;;;;;5024554;28;20489;-84
2021/05/04 21:00:34;;;;;;;2.30;1.00;;;;;;;;;;5028059;28;20108;-85
2021/05/04 21:03:12;;;;;;;5.38;1.02;;;;;;;;;;5083471;28;20384;-84
2021/05/04 21:05:41;;;;;;;3.17;0.88;;;;;;;;;;5077540;28;20050;-84
2021/05/04 21:08:42;;;;;;;2.58;0.90;;;;;;;;;;5076749;28;20044;-84
2021/05/04 21:16:57;;;;;;;4.15;1.90;;;;;;;;;;5083326;28;20118;-84
2021/05/04 21:19:43;;;;;;;4.32;1.30;;;;;;;;;;5080788;28;20694;-84
2021/05/04 21:28:06;;;;;;;;;;;;;;;;;;;;;
2021/05/04 21:30:44;;;;;;;2.40;1.13;;;;;;;;;;5074284;28;20064;-84
2021/05/04 21:33:10;;;;;;;3.85;1.45;;;;;;;;;;5077432;28;20032;-84
2021/05/04 21:35:40;;;;;;;2.75;1.17;;;;;;;;;;5071390;28;20028;-84
2021/05/04 21:38:06;;;;;;;3.63;1.55;;;;;;;;;;5071321;28;20040;-84
2021/05/04 21:40:39;;;;;;;4.65;2.72;;;;;;;;;;5085320;28;20016;-84
